createdAt,value
2019-04-28T00:00:06.842Z,100622.56
2019-04-28T00:02:40.833Z,100623.67
2019-04-28T00:05:12.506Z,100620.13
2019-04-28T00:07:44.262Z,100623.61
2019-04-28T00:10:15.872Z,100623.77
2019-04-28T00:12:47.454Z,100628.81
2019-04-28T00:15:20.766Z,100633.77
2019-04-28T00:17:51.769Z,100632.46
2019-04-28T00:20:24.745Z,100634.52
2019-04-28T00:22:57.647Z,100635.00
2019-04-28T00:25:31.215Z,100633.13
2019-04-28T00:28:03.356Z,100630.94
2019-04-28T00:30:34.958Z,100636.33
2019-04-28T00:33:07.529Z,100636.97
2019-04-28T00:35:38.699Z,100629.42
2019-04-28T00:38:11.510Z,100631.80
2019-04-28T00:40:42.585Z,100626.09
2019-04-28T00:43:13.699Z,100622.25
2019-04-28T00:45:44.771Z,100625.94
2019-04-28T00:48:16.297Z,100620.32
2019-04-28T00:50:47.863Z,100619.38
2019-04-28T00:53:20.705Z,100618.33
2019-04-28T00:55:54.025Z,100620.51
2019-04-28T00:58:25.517Z,100624.09
2019-04-28T01:00:58.098Z,100632.62
2019-04-28T01:03:29.447Z,100632.80
2019-04-28T01:06:01.899Z,100628.98
2019-04-28T01:08:33.462Z,100625.44
2019-04-28T01:11:05.165Z,100634.74
2019-04-28T01:13:36.645Z,100631.50
2019-04-28T01:16:10.993Z,100627.70
2019-04-28T01:18:44.773Z,100633.54
2019-04-28T01:21:17.157Z,100623.87
2019-04-28T01:23:50.045Z,100623.55
2019-04-28T01:26:22.645Z,100627.13
2019-04-28T01:28:55.236Z,100630.20
2019-04-28T01:31:29.450Z,100627.85
2019-04-28T01:34:03.540Z,100627.95
2019-04-28T01:36:37.546Z,100625.42
2019-04-28T01:39:10.049Z,100630.14
2019-04-28T01:41:42.030Z,100628.49
2019-04-28T01:44:14.404Z,100631.99
2019-04-28T01:46:45.600Z,100630.22
2019-04-28T01:49:17.188Z,100624.70
2019-04-28T01:51:51.780Z,100627.87
2019-04-28T01:54:22.743Z,100612.19
2019-04-28T01:56:53.910Z,100616.22
2019-04-28T01:59:25.227Z,100620.44
2019-04-28T02:01:56.699Z,100628.26
2019-04-28T02:04:30.041Z,100630.20
2019-04-28T02:07:02.042Z,100622.82
2019-04-28T02:09:33.617Z,100624.03
2019-04-28T02:12:05.086Z,100639.89
2019-04-28T02:14:37.680Z,100633.52
2019-04-28T02:17:10.471Z,100628.02
2019-04-28T02:19:42.204Z,100632.80
2019-04-28T02:22:14.913Z,100622.33
2019-04-28T02:24:46.422Z,100620.63
2019-04-28T02:27:20.301Z,100622.56
2019-04-28T02:29:51.808Z,100620.86
2019-04-28T02:32:25.338Z,100619.53
2019-04-28T02:34:57.455Z,100633.26
2019-04-28T02:37:30.560Z,100635.41
2019-04-28T02:40:03.513Z,100634.11
2019-04-28T02:42:35.566Z,100638.33
2019-04-28T02:45:11.324Z,100634.64
2019-04-28T02:47:42.168Z,100636.92
2019-04-28T02:50:15.607Z,100629.81
2019-04-28T02:52:51.610Z,100626.58
2019-04-28T02:55:21.700Z,100636.21
2019-04-28T02:57:52.557Z,100635.95
2019-04-28T03:00:24.909Z,100638.70
2019-04-28T03:02:55.979Z,100635.84
2019-04-28T03:05:27.690Z,100631.84
2019-04-28T03:08:01.237Z,100638.50
2019-04-28T03:10:34.436Z,100634.69
2019-04-28T03:13:06.820Z,100636.20
2019-04-28T03:15:38.115Z,100636.67
2019-04-28T03:18:11.507Z,100631.61
2019-04-28T03:20:42.219Z,100639.42
2019-04-28T03:23:14.545Z,100639.69
2019-04-28T03:25:50.645Z,100646.61
2019-04-28T03:28:23.379Z,100647.91
2019-04-28T03:30:56.341Z,100648.06
2019-04-28T03:33:33.032Z,100646.70
2019-04-28T03:36:07.843Z,100644.57
2019-04-28T03:38:36.202Z,100649.45
2019-04-28T03:41:07.801Z,100660.60
2019-04-28T03:43:40.754Z,100661.02
2019-04-28T03:46:14.182Z,100664.24
2019-04-28T03:48:45.461Z,100663.98
2019-04-28T03:51:17.257Z,100665.91
2019-04-28T03:53:50.568Z,100673.72
2019-04-28T03:56:21.424Z,100676.80
2019-04-28T03:58:53.332Z,100671.59
2019-04-28T04:01:25.039Z,100680.38
2019-04-28T04:03:56.131Z,100684.37
2019-04-28T04:06:31.057Z,100686.83
2019-04-28T04:09:02.973Z,100689.43
2019-04-28T04:11:37.606Z,100692.03
2019-04-28T04:14:11.403Z,100693.66
2019-04-28T04:16:47.160Z,100689.48
2019-04-28T04:19:20.324Z,100697.98
2019-04-28T04:21:52.730Z,100697.72
2019-04-28T04:24:24.255Z,100704.80
2019-04-28T04:26:55.958Z,100698.30
2019-04-28T04:29:27.117Z,100700.42
2019-04-28T04:32:11.689Z,100699.59
2019-04-28T04:34:31.839Z,100705.78
2019-04-28T04:37:03.513Z,100708.03
2019-04-28T04:39:34.907Z,100710.58
2019-04-28T04:42:06.839Z,100711.94
2019-04-28T04:44:41.390Z,100708.60
2019-04-28T04:47:11.188Z,100711.92
2019-04-28T04:49:44.160Z,100721.03
2019-04-28T04:52:16.486Z,100722.49
2019-04-28T04:54:48.274Z,100721.61
2019-04-28T04:57:20.770Z,100731.06
2019-04-28T04:59:52.706Z,100729.34
2019-04-28T05:02:29.222Z,100736.00
2019-04-28T05:05:00.461Z,100729.81
2019-04-28T05:07:32.071Z,100745.37
2019-04-28T05:10:05.475Z,100742.42
2019-04-28T05:12:37.023Z,100747.88
2019-04-28T05:15:10.420Z,100753.20
2019-04-28T05:17:41.832Z,100759.19
2019-04-28T05:20:13.966Z,100762.20
2019-04-28T05:22:46.943Z,100766.63
2019-04-28T05:25:20.490Z,100762.45
2019-04-28T05:27:54.474Z,100757.00
2019-04-28T05:30:25.581Z,100757.56
2019-04-28T05:32:57.458Z,100761.77
2019-04-28T05:35:29.777Z,100763.38
2019-04-28T05:38:01.187Z,100772.08
2019-04-28T05:40:36.703Z,100770.34
2019-04-28T05:43:11.863Z,100765.60
2019-04-28T05:46:14.377Z,100767.67
2019-04-28T05:49:01.212Z,100768.53
2019-04-28T05:51:34.248Z,100774.16
2019-04-28T05:54:09.869Z,100776.99
2019-04-28T05:56:42.832Z,100782.36
2019-04-28T05:59:15.776Z,100784.88
2019-04-28T06:01:50.622Z,100782.92
2019-04-28T06:04:23.342Z,100785.03
2019-04-28T06:06:55.939Z,100786.75
2019-04-28T06:09:29.488Z,100790.06
2019-04-28T06:12:01.001Z,100804.47
2019-04-28T06:14:32.432Z,100796.64
2019-04-28T06:17:04.243Z,100799.13
2019-04-28T06:19:35.358Z,100809.02
2019-04-28T06:22:07.030Z,100804.55
2019-04-28T06:24:38.982Z,100801.67
2019-04-28T06:27:11.179Z,100803.06
2019-04-28T06:29:42.899Z,100804.00
2019-04-28T06:32:15.969Z,100806.99
2019-04-28T06:34:47.372Z,100801.80
2019-04-28T06:37:18.676Z,100800.53
2019-04-28T06:39:50.641Z,100799.62
2019-04-28T06:42:22.514Z,100807.09
2019-04-28T06:44:54.019Z,100811.81
2019-04-28T06:47:26.852Z,100809.05
2019-04-28T06:49:58.381Z,100813.69
2019-04-28T06:52:29.687Z,100810.61
2019-04-28T06:55:01.846Z,100816.48
2019-04-28T06:57:34.601Z,100816.44
2019-04-28T07:00:07.763Z,100817.49
2019-04-28T07:02:39.338Z,100807.75
2019-04-28T07:05:11.938Z,100811.17
2019-04-28T07:07:43.474Z,100812.86
2019-04-28T07:10:15.264Z,100810.12
2019-04-28T07:12:46.546Z,100813.16
2019-04-28T07:15:21.227Z,100808.30
2019-04-28T07:17:52.696Z,100809.01
2019-04-28T07:20:26.502Z,100812.47
2019-04-28T07:22:58.701Z,100818.12
2019-04-28T07:25:30.703Z,100820.31
2019-04-28T07:28:03.223Z,100823.59
2019-04-28T07:30:36.342Z,100839.00
2019-04-28T07:33:08.101Z,100840.69
2019-04-28T07:35:42.171Z,100844.39
2019-04-28T07:38:14.870Z,100855.65
2019-04-28T07:40:46.623Z,100857.97
2019-04-28T07:43:17.443Z,100862.19
2019-04-28T07:45:48.631Z,100864.31
2019-04-28T07:48:20.015Z,100860.27
2019-04-28T07:50:52.036Z,100866.47
2019-04-28T07:53:24.829Z,100860.17
2019-04-28T07:55:57.359Z,100862.29
2019-04-28T07:58:28.676Z,100865.66
2019-04-28T08:01:01.017Z,100864.48
2019-04-28T08:03:33.275Z,100876.80
2019-04-28T08:06:08.342Z,100867.52
2019-04-28T08:08:42.556Z,100879.12
2019-04-28T08:11:14.315Z,100878.62
2019-04-28T08:13:45.615Z,100879.00
2019-04-28T08:16:17.055Z,100882.96
2019-04-28T08:18:52.550Z,100884.69
2019-04-28T08:21:29.378Z,100882.53
2019-04-28T08:24:02.998Z,100885.45
2019-04-28T08:26:36.305Z,100897.81
2019-04-28T08:29:08.453Z,100894.47
2019-04-28T08:31:41.523Z,100897.30
2019-04-28T08:34:23.510Z,100907.05
2019-04-28T08:36:57.311Z,100908.06
2019-04-28T08:39:29.232Z,100916.80
2019-04-28T08:42:01.691Z,100911.36
2019-04-28T08:44:34.991Z,100917.77
2019-04-28T08:47:06.310Z,100916.21
2019-04-28T08:49:37.834Z,100919.23
2019-04-28T08:52:10.477Z,100918.31
2019-04-28T08:54:43.904Z,100925.23
2019-04-28T08:57:18.672Z,100929.65
2019-04-28T08:59:50.772Z,100936.31
2019-04-28T09:02:22.473Z,100935.61
2019-04-28T09:04:54.258Z,100927.71
2019-04-28T09:07:27.056Z,100936.46
2019-04-28T09:09:59.849Z,100941.19
2019-04-28T09:12:31.256Z,100937.23
2019-04-28T09:15:06.577Z,100936.42
2019-04-28T09:17:43.783Z,100940.35
2019-04-28T09:20:16.137Z,100936.17
2019-04-28T09:22:47.083Z,100934.78
2019-04-28T09:25:39.686Z,100930.39
2019-04-28T09:28:29.108Z,100938.52
2019-04-28T09:31:05.972Z,100929.63
2019-04-28T09:33:41.510Z,100935.91
2019-04-28T09:36:36.056Z,100926.11
2019-04-28T09:39:14.296Z,100929.67
2019-04-28T09:41:49.693Z,100936.52
2019-04-28T09:44:23.992Z,100934.71
2019-04-28T09:46:57.157Z,100938.77
2019-04-28T09:49:29.137Z,100933.89
2019-04-28T09:52:01.237Z,100932.41
2019-04-28T09:54:35.318Z,100938.85
2019-04-28T09:57:08.557Z,100934.11
2019-04-28T09:59:40.521Z,100932.66
2019-04-28T10:02:12.699Z,100934.46
2019-04-28T10:04:47.875Z,100934.08
2019-04-28T10:07:23.062Z,100925.83
2019-04-28T10:09:57.375Z,100927.45
2019-04-28T10:12:29.437Z,100928.02
2019-04-28T10:15:01.497Z,100923.27
2019-04-28T10:17:33.999Z,100923.61
2019-04-28T10:20:07.897Z,100924.01
2019-04-28T10:22:41.056Z,100926.42
2019-04-28T10:25:13.476Z,100931.28
2019-04-28T10:27:45.690Z,100931.56
2019-04-28T10:30:17.596Z,100928.69
2019-04-28T10:32:49.340Z,100926.28
2019-04-28T10:35:21.278Z,100925.12
2019-04-28T10:37:55.477Z,100929.44
2019-04-28T10:40:30.953Z,100928.34
2019-04-28T10:43:03.403Z,100931.73
2019-04-28T10:45:37.096Z,100929.27
2019-04-28T10:48:08.951Z,100933.34
2019-04-28T10:50:42.276Z,100934.61
2019-04-28T10:53:14.516Z,100935.25
2019-04-28T10:55:46.102Z,100936.84
2019-04-28T10:58:18.858Z,100931.13
2019-04-28T11:00:50.403Z,100935.84
2019-04-28T11:03:22.596Z,100946.45
2019-04-28T11:05:55.119Z,100939.42
2019-04-28T11:08:27.464Z,100936.19
2019-04-28T11:11:04.141Z,100934.85
2019-04-28T11:13:39.920Z,100937.05
2019-04-28T11:16:19.477Z,100951.98
2019-04-28T11:18:55.673Z,100946.48
2019-04-28T11:21:39.843Z,100953.55
2019-04-28T11:24:12.798Z,100949.89
2019-04-28T11:26:45.884Z,100949.79
2019-04-28T11:29:18.554Z,100963.33
2019-04-28T11:31:52.221Z,100958.38
2019-04-28T11:34:25.500Z,100947.88
2019-04-28T11:36:57.065Z,100951.67
2019-04-28T11:39:30.246Z,100954.72
2019-04-28T11:42:01.314Z,100953.58
2019-04-28T11:44:32.547Z,100959.55
2019-04-28T11:47:05.500Z,100955.84
2019-04-28T11:49:36.704Z,100961.41
2019-04-28T11:52:08.553Z,100956.06
2019-04-28T11:54:40.959Z,100959.36
2019-04-28T11:57:12.403Z,100956.52
2019-04-28T11:59:43.685Z,100965.42
2019-04-28T12:02:15.374Z,100959.71
2019-04-28T12:04:47.037Z,100965.00
2019-04-28T12:07:18.925Z,100969.14
2019-04-28T12:10:03.819Z,100973.97
2019-04-28T12:12:26.576Z,100971.52
2019-04-28T12:14:59.554Z,100978.75
2019-04-28T12:17:30.858Z,100971.65
2019-04-28T12:20:04.028Z,100973.64
2019-04-28T12:22:35.917Z,100974.34
2019-04-28T12:25:08.132Z,100974.00
2019-04-28T12:27:39.315Z,100973.88
2019-04-28T12:30:11.340Z,100971.74
2019-04-28T12:32:43.488Z,100971.33
2019-04-28T12:35:15.205Z,100971.86
2019-04-28T12:37:49.152Z,100978.20
2019-04-28T12:40:22.619Z,100976.67
2019-04-28T12:42:54.492Z,100973.13
2019-04-28T12:45:34.769Z,100982.97
2019-04-28T12:47:59.375Z,100984.09
2019-04-28T12:50:32.561Z,100976.23
2019-04-28T12:53:03.909Z,100986.88
2019-04-28T12:55:35.169Z,100983.02
2019-04-28T12:58:06.676Z,100976.47
2019-04-28T13:00:39.426Z,100981.08
2019-04-28T13:03:12.220Z,100971.66
2019-04-28T13:05:46.228Z,100976.47
2019-04-28T13:08:18.185Z,100976.81
2019-04-28T13:10:49.633Z,100975.20
2019-04-28T13:13:21.137Z,100969.80
2019-04-28T13:15:53.037Z,100978.44
2019-04-28T13:18:24.977Z,100977.62
2019-04-28T13:20:58.955Z,100975.62
2019-04-28T13:23:29.365Z,100972.62
2019-04-28T13:26:01.168Z,100975.00
2019-04-28T13:28:32.613Z,100974.39
2019-04-28T13:31:03.891Z,100975.81
2019-04-28T13:33:35.249Z,100976.52
2019-04-28T13:36:14.532Z,100976.63
2019-04-28T13:38:40.603Z,100973.55
2019-04-28T13:41:11.934Z,100969.11
2019-04-28T13:43:46.750Z,100963.86
2019-04-28T13:46:18.460Z,100970.18
2019-04-28T13:48:49.935Z,100966.36
2019-04-28T13:51:21.936Z,100966.98
2019-04-28T13:53:53.677Z,100976.47
2019-04-28T13:56:25.120Z,100967.56
2019-04-28T13:58:57.829Z,100953.61
2019-04-28T14:01:30.594Z,100962.90
2019-04-28T14:04:03.216Z,100978.39
2019-04-28T14:06:36.098Z,100969.45
2019-04-28T14:09:10.289Z,100968.26
2019-04-28T14:11:43.518Z,100968.41
2019-04-28T14:14:15.303Z,100966.78
2019-04-28T14:16:46.826Z,100962.15
2019-04-28T14:19:18.085Z,100968.53
2019-04-28T14:21:49.912Z,100968.17
2019-04-28T14:24:21.209Z,100961.63
2019-04-28T14:26:53.114Z,100967.93
2019-04-28T14:29:25.036Z,100964.30
2019-04-28T14:31:56.374Z,100968.52
2019-04-28T14:34:28.528Z,100956.70
2019-04-28T14:37:00.166Z,100971.32
2019-04-28T14:39:33.144Z,100974.36
2019-04-28T14:42:04.743Z,100974.53
2019-04-28T14:44:35.921Z,100972.16
2019-04-28T14:47:07.366Z,100981.25
2019-04-28T14:49:38.585Z,100971.49
2019-04-28T14:52:10.293Z,100977.91
2019-04-28T14:54:41.669Z,100972.30
2019-04-28T14:57:12.828Z,100977.53
2019-04-28T14:59:44.071Z,100978.25
2019-04-28T15:02:18.180Z,100981.42
2019-04-28T15:04:51.294Z,100976.34
2019-04-28T15:07:24.579Z,100981.41
2019-04-28T15:09:57.829Z,100977.09
2019-04-28T15:12:29.547Z,100982.11
2019-04-28T15:15:01.212Z,100985.03
2019-04-28T15:17:32.704Z,100987.98
2019-04-28T15:20:05.086Z,100989.16
2019-04-28T15:22:36.720Z,100989.48
2019-04-28T15:25:08.598Z,100994.76
2019-04-28T15:27:42.999Z,100997.88
2019-04-28T15:30:15.022Z,100999.09
2019-04-28T15:32:46.889Z,101002.97
2019-04-28T15:35:18.890Z,101003.86
2019-04-28T15:37:50.613Z,100999.52
2019-04-28T15:40:22.778Z,101005.03
2019-04-28T15:42:54.503Z,101006.53
2019-04-28T15:45:26.215Z,101006.20
2019-04-28T15:47:57.641Z,101009.38
2019-04-28T15:50:30.221Z,101010.13
2019-04-28T15:53:02.032Z,101006.96
2019-04-28T15:55:34.865Z,101010.74
2019-04-28T15:58:08.869Z,101009.66
2019-04-28T16:00:43.269Z,101008.36
2019-04-28T16:03:15.403Z,101013.72
2019-04-28T16:05:46.459Z,101010.50
2019-04-28T16:08:17.463Z,101016.47
2019-04-28T16:10:49.975Z,101017.77
2019-04-28T16:13:21.285Z,101017.91
2019-04-28T16:15:53.093Z,101016.87
2019-04-28T16:18:24.662Z,101014.13
2019-04-28T16:20:56.282Z,101014.59
2019-04-28T16:23:28.876Z,101014.80
2019-04-28T16:26:00.500Z,101017.67
2019-04-28T16:28:31.927Z,101014.98
2019-04-28T16:31:03.583Z,101017.47
2019-04-28T16:33:34.825Z,101018.78
2019-04-28T16:36:06.086Z,101019.25
2019-04-28T16:38:37.664Z,101023.44
2019-04-28T16:41:10.899Z,101025.37
2019-04-28T16:43:42.578Z,101017.39
2019-04-28T16:46:14.102Z,101017.71
2019-04-28T16:48:45.712Z,101020.38
2019-04-28T16:51:17.391Z,101018.98
2019-04-28T16:53:49.017Z,101025.36
2019-04-28T16:56:21.919Z,101023.99
2019-04-28T16:58:54.676Z,101021.86
2019-04-28T17:01:27.611Z,101028.44
2019-04-28T17:03:58.967Z,101031.99
2019-04-28T17:06:30.231Z,101029.13
2019-04-28T17:09:01.849Z,101036.06
2019-04-28T17:11:35.132Z,101036.53
2019-04-28T17:14:06.806Z,101038.82
2019-04-28T17:16:38.747Z,101040.39
2019-04-28T17:19:10.789Z,101037.06
2019-04-28T17:21:41.568Z,101037.16
2019-04-28T17:24:13.558Z,101040.91
2019-04-28T17:26:49.639Z,101042.48
2019-04-28T17:29:22.118Z,101038.72
2019-04-28T17:31:54.154Z,101037.32
2019-04-28T17:34:27.345Z,101040.13
2019-04-28T17:36:59.943Z,101037.63
2019-04-28T17:39:32.732Z,101044.00
2019-04-28T17:42:06.081Z,101043.91
2019-04-28T17:44:38.201Z,101049.06
2019-04-28T17:47:10.061Z,101051.31
2019-04-28T17:49:45.522Z,101057.36
2019-04-28T17:52:16.402Z,101058.92
2019-04-28T17:54:47.116Z,101065.64
2019-04-28T17:57:25.368Z,101063.16
2019-04-28T18:00:02.289Z,101065.38
2019-04-28T18:02:36.494Z,101063.09
2019-04-28T18:05:09.329Z,101062.20
2019-04-28T18:07:40.129Z,101067.58
2019-04-28T18:10:11.463Z,101075.14
2019-04-28T18:12:42.261Z,101067.22
2019-04-28T18:15:15.171Z,101067.89
2019-04-28T18:17:48.152Z,101069.77
2019-04-28T18:20:19.032Z,101070.70
2019-04-28T18:22:51.279Z,101074.03
2019-04-28T18:25:24.392Z,101084.53
2019-04-28T18:28:00.682Z,101085.20
2019-04-28T18:30:36.974Z,101082.37
2019-04-28T18:33:12.764Z,101094.58
2019-04-28T18:35:45.663Z,101090.03
2019-04-28T18:38:19.230Z,101092.13
2019-04-28T18:40:53.867Z,101098.89
2019-04-28T18:43:27.992Z,101096.03
2019-04-28T18:45:59.746Z,101095.59
2019-04-28T18:48:31.967Z,101099.50
2019-04-28T18:51:05.464Z,101103.06
2019-04-28T18:53:36.918Z,101101.44
2019-04-28T18:56:08.671Z,101104.05
2019-04-28T18:58:39.877Z,101094.34
2019-04-28T19:01:12.484Z,101107.73
2019-04-28T19:03:43.750Z,101106.00
2019-04-28T19:06:15.288Z,101111.31
2019-04-28T19:08:49.604Z,101109.50
2019-04-28T19:11:22.194Z,101106.25
2019-04-28T19:13:54.761Z,101109.42
2019-04-28T19:16:28.531Z,101109.83
2019-04-28T19:19:01.573Z,101113.51
2019-04-28T19:21:36.478Z,101114.87
2019-04-28T19:24:07.991Z,101107.30
2019-04-28T19:26:39.591Z,101108.30
2019-04-28T19:29:10.380Z,101105.05
2019-04-28T19:31:41.921Z,101109.09
2019-04-28T19:34:13.393Z,101098.78
2019-04-28T19:36:46.587Z,101106.27
2019-04-28T19:39:19.284Z,101102.66
2019-04-28T19:41:52.865Z,101101.77
2019-04-28T19:44:24.647Z,101099.99
2019-04-28T19:46:56.411Z,101096.80
2019-04-28T19:49:29.805Z,101100.53
2019-04-28T19:52:01.935Z,101101.53
2019-04-28T19:54:35.825Z,101101.84
2019-04-28T19:57:08.896Z,101097.22
2019-04-28T19:59:41.807Z,101102.27
2019-04-28T20:02:14.106Z,101099.66
2019-04-28T20:04:46.012Z,101095.58
2019-04-28T20:07:18.554Z,101095.64
2019-04-28T20:09:51.681Z,101092.91
2019-04-28T20:12:23.454Z,101093.63
2019-04-28T20:14:55.827Z,101092.64
2019-04-28T20:17:27.685Z,101089.72
2019-04-28T20:19:59.298Z,101091.81
2019-04-28T20:22:49.796Z,101091.81
2019-04-28T20:25:39.247Z,101089.89
2019-04-28T20:28:29.863Z,101090.54
2019-04-28T20:31:01.334Z,101089.95
2019-04-28T20:33:36.598Z,101087.84
2019-04-28T20:36:09.905Z,101090.20
2019-04-28T20:38:44.613Z,101086.30
2019-04-28T20:41:26.832Z,101087.77
2019-04-28T20:44:09.932Z,101090.69
2019-04-28T20:46:52.945Z,101089.28
2019-04-28T20:49:41.555Z,101089.83
2019-04-28T20:52:22.323Z,101094.46
2019-04-28T20:54:55.440Z,101091.92
2019-04-28T20:57:27.341Z,101094.39
2019-04-28T21:00:00.160Z,101092.98
2019-04-28T21:02:31.885Z,101087.78
2019-04-28T21:05:04.393Z,101084.28
2019-04-28T21:07:37.727Z,101085.34
2019-04-28T21:10:10.053Z,101078.73
2019-04-28T21:12:41.385Z,101077.43
2019-04-28T21:15:13.804Z,101074.93
2019-04-28T21:17:45.639Z,101071.02
2019-04-28T21:20:17.432Z,101070.45
2019-04-28T21:22:49.966Z,101074.69
2019-04-28T21:25:22.020Z,101067.25
2019-04-28T21:27:53.305Z,101071.16
2019-04-28T21:30:26.848Z,101075.00
2019-04-28T21:32:59.075Z,101068.56
2019-04-28T21:35:31.546Z,101066.36
2019-04-28T21:38:02.664Z,101069.23
2019-04-28T21:40:35.847Z,101058.72
2019-04-28T21:43:08.857Z,101067.42
2019-04-28T21:45:41.929Z,101062.55
2019-04-28T21:48:14.906Z,101062.39
2019-04-28T21:50:46.326Z,101062.91
2019-04-28T21:53:19.277Z,101056.28
2019-04-28T21:55:51.727Z,101056.39
2019-04-28T21:58:32.851Z,101060.19
2019-04-28T22:00:57.042Z,101055.88
2019-04-28T22:03:28.449Z,101050.84
2019-04-28T22:06:00.597Z,101046.66
2019-04-28T22:08:31.764Z,101038.64
2019-04-28T22:11:03.069Z,101038.53
2019-04-28T22:13:33.905Z,101033.67
2019-04-28T22:16:04.952Z,101039.53
2019-04-28T22:18:36.125Z,101034.83
2019-04-28T22:21:08.975Z,101031.89
2019-04-28T22:23:41.696Z,101030.91
2019-04-28T22:26:15.855Z,101035.94
2019-04-28T22:28:46.946Z,101029.66
2019-04-28T22:31:17.935Z,101020.31
2019-04-28T22:33:49.508Z,101025.86
2019-04-28T22:36:21.051Z,101018.94
2019-04-28T22:38:52.337Z,101025.04
2019-04-28T22:41:23.641Z,101020.08
2019-04-28T22:43:56.488Z,101020.17
2019-04-28T22:46:28.741Z,101018.46
2019-04-28T22:49:01.474Z,101020.17
2019-04-28T22:51:33.578Z,101021.95
2019-04-28T22:54:08.019Z,101022.68
2019-04-28T22:56:40.978Z,101024.45
2019-04-28T22:59:14.128Z,101018.46
2019-04-28T23:01:49.357Z,101018.05
2019-04-28T23:04:21.920Z,101015.52
2019-04-28T23:06:53.746Z,101013.31
2019-04-28T23:09:25.720Z,101011.77
2019-04-28T23:11:57.207Z,101006.98
2019-04-28T23:14:29.293Z,100994.63
2019-04-28T23:17:00.829Z,100993.91
2019-04-28T23:19:34.772Z,100990.98
2019-04-28T23:22:07.766Z,100988.45
2019-04-28T23:24:39.626Z,100984.95
2019-04-28T23:27:11.071Z,100984.64
2019-04-28T23:29:42.288Z,100979.49
2019-04-28T23:32:14.516Z,100978.19
2019-04-28T23:34:46.215Z,100975.11
2019-04-28T23:37:17.746Z,100962.98
2019-04-28T23:39:49.049Z,100952.97
2019-04-28T23:42:22.304Z,100949.64
2019-04-28T23:44:54.210Z,100942.20
2019-04-28T23:47:25.834Z,100930.42
2019-04-28T23:49:57.714Z,100924.80
2019-04-28T23:52:30.868Z,100928.45
2019-04-28T23:55:03.863Z,100931.87
2019-04-28T23:57:35.106Z,100922.60
